Time;durP1;ratioP1;P1;durP2;ratioP2;P2;SDS_P1;SDS_P2;PMS_P1;PMS_P2;Temp;Humidity;BMP_temperature;BMP_pressure;BME280_temperature;BME280_humidity;BME280_pressure;Samples;Min_cycle;Max_cycle;Signal;HPM_P1;HPM_P2
2024/02/03 00:01:39;;;;;;;17.40;9.23;;;;;;;7.08;58.87;100582.78;4954185;29;20050;-26
2024/02/03 00:04:05;;;;;;;16.60;9.15;;;;;;;6.93;59.38;100588.69;4953643;29;20325;-37
2024/02/03 00:06:30;;;;;;;15.57;9.15;;;;;;;7.19;58.53;100590.41;4954029;29;20062;-37
2024/02/03 00:08:55;;;;;;;21.48;9.38;;;;;;;7.16;57.86;100588.94;4953912;29;20042;-40
2024/02/03 00:11:21;;;;;;;15.70;8.90;;;;;;;6.86;58.72;100587.66;4953759;29;20051;-37
2024/02/03 00:13:46;;;;;;;16.75;9.35;;;;;;;6.95;59.21;100581.41;4953632;29;20388;-39
2024/02/03 00:16:12;;;;;;;17.70;8.98;;;;;;;7.13;58.40;100583.13;4953485;29;20027;-36
2024/02/03 00:18:37;;;;;;;16.02;9.15;;;;;;;7.07;58.59;100581.94;4953357;29;20030;-39
2024/02/03 00:21:04;;;;;;;15.18;9.05;;;;;;;7.10;58.53;100581.63;4952743;29;20055;-38
2024/02/03 00:23:30;;;;;;;16.15;8.68;;;;;;;6.99;58.53;100569.50;4953150;29;20031;-39
2024/02/03 00:25:56;;;;;;;15.85;9.20;;;;;;;6.94;59.66;100586.84;4953295;29;20419;-39
2024/02/03 00:28:21;;;;;;;14.52;9.13;;;;;;;7.13;58.33;100580.47;4953032;29;20127;-37
2024/02/03 00:30:47;;;;;;;16.42;9.20;;;;;;;7.27;58.56;100585.13;4953064;28;20456;-40
2024/02/03 00:33:12;;;;;;;20.60;9.85;;;;;;;7.23;58.23;100587.31;4953009;29;20069;-40
2024/02/03 00:35:38;;;;;;;15.90;8.90;;;;;;;7.26;58.32;100582.69;4952800;29;20054;-37
2024/02/03 00:38:04;;;;;;;15.18;9.05;;;;;;;7.03;58.62;100580.63;4953064;29;20428;-39
2024/02/03 00:40:30;;;;;;;19.65;9.93;;;;;;;7.08;59.33;100580.94;4953030;29;20123;-38
2024/02/03 00:42:55;;;;;;;16.17;9.13;;;;;;;7.00;58.79;100591.50;4953341;29;20033;-39
2024/02/03 00:45:21;;;;;;;18.70;9.48;;;;;;;7.20;59.08;100582.31;4952837;29;20423;-39
2024/02/03 00:47:46;;;;;;;15.25;8.90;;;;;;;7.19;59.21;100585.94;4952949;29;20376;-37
2024/02/03 00:50:14;;;;;;;16.15;9.07;;;;;;;7.37;58.55;100590.31;4952407;29;20049;-39
2024/02/03 00:52:43;;;;;;;16.33;9.00;;;;;;;7.21;59.12;100580.50;4952595;29;20089;-39
2024/02/03 00:55:09;;;;;;;13.82;8.57;;;;;;;7.08;59.71;100578.28;4952037;29;20058;-39
2024/02/03 00:57:35;;;;;;;13.82;8.82;;;;;;;6.78;61.11;100571.75;4952386;29;20027;-39
2024/02/03 01:00:02;;;;;;;15.55;8.90;;;;;;;6.82;61.14;100573.09;4952260;29;20098;-39
2024/02/03 01:02:28;;;;;;;16.42;9.20;;;;;;;6.84;61.10;100576.41;4952071;29;20407;-39
2024/02/03 01:04:54;;;;;;;16.08;8.77;;;;;;;6.63;62.15;100576.81;4952226;29;20039;-38
2024/02/03 01:07:19;;;;;;;16.95;9.65;;;;;;;6.52;62.61;100577.88;4952151;29;20106;-38
2024/02/03 01:09:45;;;;;;;15.63;9.32;;;;;;;6.72;61.62;100577.66;4952473;29;20046;-38
2024/02/03 01:12:10;;;;;;;16.67;9.45;;;;;;;6.45;62.74;100579.50;4952526;29;20479;-39
2024/02/03 01:14:36;;;;;;;16.15;9.80;;;;;;;6.45;63.49;100583.00;4952554;29;20130;-39
2024/02/03 01:17:02;;;;;;;16.95;9.88;;;;;;;6.51;63.09;100570.09;4952365;29;20031;-36
2024/02/03 01:19:28;;;;;;;17.52;10.30;;;;;;;6.40;63.66;100574.69;4952186;29;20085;-38
2024/02/03 01:21:53;;;;;;;20.27;10.45;;;;;;;6.35;63.77;100574.31;4952677;29;20031;-39
2024/02/03 01:24:19;;;;;;;19.27;10.48;;;;;;;6.37;63.56;100569.69;4952199;29;20089;-39
2024/02/03 01:26:44;;;;;;;17.58;10.52;;;;;;;6.32;64.23;100574.66;4952110;29;20039;-39
2024/02/03 01:29:10;;;;;;;18.55;10.70;;;;;;;6.46;63.98;100574.06;4952127;29;20506;-39
2024/02/03 01:31:36;;;;;;;19.75;10.80;;;;;;;6.55;62.92;100564.38;4952290;29;20451;-39
2024/02/03 01:34:01;;;;;;;17.42;10.68;;;;;;;6.48;63.39;100565.16;4952045;29;20070;-40
2024/02/03 01:36:27;;;;;;;19.05;10.38;;;;;;;6.33;64.06;100571.00;4952390;29;20120;-37
2024/02/03 01:38:52;;;;;;;16.58;10.30;;;;;;;6.00;64.82;100570.78;4952083;29;20104;-40
2024/02/03 01:41:18;;;;;;;21.27;10.80;;;;;;;6.33;63.52;100568.34;4952077;28;20015;-37
2024/02/03 01:43:46;;;;;;;19.35;10.43;;;;;;;6.22;63.92;100560.69;4956033;29;20431;-40
2024/02/03 01:46:12;;;;;;;20.48;10.88;;;;;;;6.14;64.09;100552.69;4955977;29;20019;-40
2024/02/03 01:48:39;;;;;;;17.70;11.30;;;;;;;6.14;64.54;100558.81;4956165;29;20033;-38
2024/02/03 01:51:06;;;;;;;20.02;11.63;;;;;;;6.10;64.66;100559.28;4956023;29;20111;-39
2024/02/03 01:53:32;;;;;;;18.17;10.85;;;;;;;5.81;65.16;100557.72;4955838;29;20027;-39
2024/02/03 01:55:59;;;;;;;18.40;10.80;;;;;;;5.98;64.37;100556.06;4955665;29;20404;-40
2024/02/03 01:58:24;;;;;;;19.02;10.77;;;;;;;5.89;64.72;100549.84;4955882;29;20023;-39
2024/02/03 02:00:50;;;;;;;19.52;11.02;;;;;;;6.04;64.22;100558.09;4955774;29;20098;-37
2024/02/03 02:03:16;;;;;;;18.15;9.75;;;;;;;5.65;65.38;100556.59;4955769;29;20561;-38
2024/02/03 02:05:44;;;;;;;17.10;9.90;;;;;;;5.60;65.26;100542.19;4955648;29;20484;-39
2024/02/03 02:08:10;;;;;;;17.52;9.80;;;;;;;5.62;64.91;100548.97;4955804;29;20514;-37
2024/02/03 02:10:36;;;;;;;18.33;9.80;;;;;;;5.37;65.74;100529.44;4955740;29;20023;-37
2024/02/03 02:13:02;;;;;;;17.08;9.95;;;;;;;5.47;65.77;100542.56;4955505;29;20027;-38
2024/02/03 02:15:28;;;;;;;18.92;10.32;;;;;;;5.39;65.62;100538.03;4955568;29;20086;-39
2024/02/03 02:18:00;;;;;;;19.80;10.15;;;;;;;5.21;65.62;100543.28;4955659;29;20031;-39
2024/02/03 02:20:26;;;;;;;20.02;10.80;;;;;;;5.47;65.20;100532.81;4955951;29;20019;-40
2024/02/03 02:22:52;;;;;;;19.05;10.13;;;;;;;5.20;64.90;100507.31;4956101;29;20028;-37
2024/02/03 02:25:17;;;;;;;16.73;10.10;;;;;;;5.58;64.46;100541.47;4956166;29;20118;-39
2024/02/03 02:27:43;;;;;;;16.90;9.77;;;;;;;5.45;65.17;100537.41;4956058;29;20027;-37
2024/02/03 02:30:10;;;;;;;20.05;10.35;;;;;;;5.06;66.68;100540.34;4955779;29;20020;-38
2024/02/03 02:32:36;;;;;;;16.48;9.50;;;;;;;4.60;68.00;100542.06;4955922;29;20134;-40
2024/02/03 02:35:02;;;;;;;18.27;10.00;;;;;;;4.50;68.93;100551.84;4955862;29;20119;-39
2024/02/03 02:37:27;;;;;;;18.58;9.23;;;;;;;4.80;67.72;100542.00;4955927;29;20435;-39
2024/02/03 02:39:53;;;;;;;19.65;10.55;;;;;;;4.99;66.97;100548.97;4955612;29;20035;-39
2024/02/03 02:42:18;;;;;;;17.27;9.25;;;;;;;4.62;67.39;100555.94;4955763;29;20030;-38
2024/02/03 02:44:44;;;;;;;19.35;10.20;;;;;;;4.75;66.89;100552.16;4955759;29;20039;-36
2024/02/03 02:47:09;;;;;;;17.30;9.93;;;;;;;4.65;67.12;100552.19;4955618;29;20035;-39
2024/02/03 02:49:35;;;;;;;18.45;9.18;;;;;;;4.68;66.54;100560.66;4955882;29;20027;-38
2024/02/03 02:52:00;;;;;;;17.40;9.05;;;;;;;4.69;66.19;100553.56;4955593;29;20054;-39
2024/02/03 02:54:26;;;;;;;18.45;9.07;;;;;;;4.81;65.20;100557.66;4954455;28;20429;-39
2024/02/03 02:56:51;;;;;;;13.88;8.13;;;;;;;4.64;65.31;100559.25;4955063;29;20027;-37
2024/02/03 02:59:17;;;;;;;14.88;8.35;;;;;;;4.71;65.30;100554.25;4955507;29;20489;-38
2024/02/03 03:01:43;;;;;;;14.32;8.27;;;;;;;4.84;64.36;100561.84;4955578;29;20114;-38
2024/02/03 03:04:08;;;;;;;15.90;7.47;;;;;;;4.72;63.87;100552.44;4937878;29;20045;-40
2024/02/03 03:06:34;;;;;;;12.50;8.05;;;;;;;4.69;63.68;100554.41;4955239;29;20097;-38
2024/02/03 03:08:59;;;;;;;13.30;6.97;;;;;;;4.54;63.57;100541.84;4955501;29;20427;-38
2024/02/03 03:11:25;;;;;;;12.20;6.75;;;;;;;4.84;62.48;100553.94;4955118;29;20061;-39
2024/02/03 03:13:50;;;;;;;11.82;6.70;;;;;;;4.75;62.35;100552.16;4955373;29;20049;-39
2024/02/03 03:16:16;;;;;;;14.55;6.90;;;;;;;4.76;61.88;100546.75;4955235;29;20086;-39
2024/02/03 03:18:41;;;;;;;13.70;6.68;;;;;;;4.83;61.42;100558.34;4955282;29;20019;-37
2024/02/03 03:21:08;;;;;;;13.95;6.65;;;;;;;4.86;61.55;100549.31;4955270;29;20486;-38
2024/02/03 03:23:34;;;;;;;11.52;6.88;;;;;;;4.39;62.77;100546.75;4955132;29;20443;-38
2024/02/03 03:25:59;;;;;;;11.10;6.28;;;;;;;4.62;62.41;100542.75;4955044;29;20051;-37
2024/02/03 03:28:25;;;;;;;12.18;6.28;;;;;;;4.69;61.58;100543.84;4954916;29;20027;-38
2024/02/03 03:30:51;;;;;;;15.80;6.55;;;;;;;4.42;62.27;100530.66;4954896;29;20019;-38
2024/02/03 03:33:16;;;;;;;13.10;6.35;;;;;;;4.51;61.79;100535.03;4954748;29;20519;-38
2024/02/03 03:35:41;;;;;;;11.00;6.47;;;;;;;4.55;61.59;100533.78;4954932;29;20023;-39
2024/02/03 03:38:07;;;;;;;10.90;6.05;;;;;;;4.59;61.48;100529.88;4955159;29;20054;-38
2024/02/03 03:40:36;;;;;;;12.10;6.50;;;;;;;4.54;61.43;100532.13;4954915;29;20511;-37
2024/02/03 03:43:05;;;;;;;14.93;6.47;;;;;;;4.55;61.41;100530.31;4955102;29;20443;-39
2024/02/03 03:45:31;;;;;;;14.95;6.32;;;;;;;4.62;60.80;100531.38;4954683;29;20032;-38
2024/02/03 03:47:57;;;;;;;11.32;5.90;;;;;;;4.55;61.11;100523.25;4954729;29;20035;-35
2024/02/03 03:50:22;;;;;;;15.75;6.13;;;;;;;4.40;61.54;100529.94;4954736;29;20024;-39
2024/02/03 03:52:48;;;;;;;10.68;6.18;;;;;;;4.70;60.69;100531.47;4954512;29;20097;-38
2024/02/03 03:55:15;;;;;;;14.18;6.53;;;;;;;4.74;60.62;100532.03;4953870;29;20030;-38
2024/02/03 03:57:41;;;;;;;10.05;5.60;;;;;;;4.52;60.85;100523.53;4954483;29;20516;-39
2024/02/03 04:00:09;;;;;;;12.35;6.13;;;;;;;4.47;60.58;100526.59;4954271;29;20062;-39
2024/02/03 04:02:35;;;;;;;10.23;5.50;;;;;;;4.41;61.01;100516.63;4954386;29;20028;-39
2024/02/03 04:05:00;;;;;;;10.32;5.95;;;;;;;4.37;61.36;100514.44;4954183;28;20034;-39
2024/02/03 04:07:26;;;;;;;12.88;5.70;;;;;;;4.30;61.34;100514.16;4954591;29;20141;-39
2024/02/03 04:09:51;;;;;;;10.27;5.53;;;;;;;4.48;60.64;100498.44;4954256;29;20019;-38
2024/02/03 04:12:17;;;;;;;11.68;5.70;;;;;;;4.42;60.55;100497.22;4954306;29;20035;-39
2024/02/03 04:14:43;;;;;;;13.02;6.43;;;;;;;4.38;61.16;100506.38;4954217;29;20110;-37
2024/02/03 04:17:09;;;;;;;11.43;5.85;;;;;;;4.21;61.55;100504.50;4954163;29;20098;-37
2024/02/03 04:19:34;;;;;;;10.32;5.90;;;;;;;4.31;61.28;100505.28;4954137;29;20019;-38
2024/02/03 04:22:00;;;;;;;12.05;5.63;;;;;;;4.23;61.48;100505.19;4953661;29;20031;-39
2024/02/03 04:24:25;;;;;;;13.90;6.35;;;;;;;3.93;61.98;100496.53;4954077;29;20042;-37
2024/02/03 04:26:51;;;;;;;12.60;6.10;;;;;;;4.03;61.47;100467.53;4953938;29;20433;-40
2024/02/03 04:29:16;;;;;;;12.95;6.00;;;;;;;4.31;60.93;100489.47;4953871;29;20059;-40
2024/02/03 04:31:42;;;;;;;13.07;6.25;;;;;;;4.53;60.49;100483.00;4953906;29;20045;-37
2024/02/03 04:34:08;;;;;;;12.20;6.07;;;;;;;4.09;61.36;100488.03;4936914;29;20128;-39
2024/02/03 04:36:34;;;;;;;12.52;6.20;;;;;;;4.16;61.44;100488.28;4954329;29;20035;-39
2024/02/03 04:38:59;;;;;;;14.15;6.38;;;;;;;4.20;60.93;100490.47;4953996;29;20487;-39
2024/02/03 04:41:25;;;;;;;13.73;6.15;;;;;;;4.16;61.06;100497.00;4953616;29;20019;-39
2024/02/03 04:43:51;;;;;;;11.30;5.90;;;;;;;4.05;61.14;100479.56;4953656;29;20487;-39
2024/02/03 04:46:16;;;;;;;12.98;6.05;;;;;;;4.00;61.67;100494.13;4953692;29;20038;-40
2024/02/03 04:48:42;;;;;;;12.25;6.15;;;;;;;4.19;61.27;100502.00;4953489;29;20106;-38
2024/02/03 04:51:08;;;;;;;12.90;5.82;;;;;;;4.06;61.12;100501.50;4953648;29;20030;-39
2024/02/03 04:53:33;;;;;;;11.10;5.60;;;;;;;4.23;61.18;100502.56;4935947;29;20031;-37
2024/02/03 04:55:59;;;;;;;9.35;5.53;;;;;;;4.55;59.90;100498.66;4953129;29;20106;-38
2024/02/03 04:58:24;;;;;;;11.05;5.32;;;;;;;4.47;59.70;100502.88;4953560;29;20503;-38
2024/02/03 05:00:49;;;;;;;11.48;5.35;;;;;;;4.35;60.36;100503.19;4953429;29;20110;-39
2024/02/03 05:03:15;;;;;;;9.07;5.40;;;;;;;4.04;60.94;100498.19;4953709;29;20404;-39
2024/02/03 05:05:40;;;;;;;13.52;5.90;;;;;;;4.32;60.02;100504.31;4953977;29;20067;-40
2024/02/03 05:08:06;;;;;;;12.85;5.38;;;;;;;4.35;59.92;100500.56;4953763;29;20499;-38
2024/02/03 05:10:31;;;;;;;10.63;5.40;;;;;;;4.25;60.56;100506.69;4953660;29;20395;-40
2024/02/03 05:12:57;;;;;;;10.98;5.80;;;;;;;4.35;60.11;100506.66;4953679;29;20142;-40
2024/02/03 05:15:23;;;;;;;12.90;6.32;;;;;;;4.16;60.95;100496.19;4953820;29;20027;-39
2024/02/03 05:17:49;;;;;;;13.82;6.28;;;;;;;4.33;60.17;100494.63;4953050;29;20031;-38
2024/02/03 05:20:14;;;;;;;13.70;6.13;;;;;;;4.27;60.58;100491.56;4953618;29;20019;-40
2024/02/03 05:22:40;;;;;;;12.63;6.60;;;;;;;4.39;60.27;100486.94;4953499;29;20114;-39
2024/02/03 05:25:06;;;;;;;13.23;7.00;;;;;;;4.39;60.24;100480.84;4953305;29;20392;-39
2024/02/03 05:27:32;;;;;;;15.27;7.70;;;;;;;4.27;60.38;100475.75;4953282;29;20023;-40
2024/02/03 05:29:57;;;;;;;12.98;6.93;;;;;;;4.14;61.12;100464.72;4953691;29;20074;-39
2024/02/03 05:32:22;;;;;;;14.38;7.32;;;;;;;4.10;60.97;100469.44;4953697;29;20031;-39
2024/02/03 05:34:48;;;;;;;17.10;6.82;;;;;;;4.04;61.17;100471.84;4953748;29;20392;-38
2024/02/03 05:37:13;;;;;;;12.43;6.78;;;;;;;4.06;61.48;100475.16;4953738;29;20073;-38
2024/02/03 05:39:39;;;;;;;13.50;6.72;;;;;;;4.05;61.63;100465.56;4953461;29;20051;-39
2024/02/03 05:42:05;;;;;;;12.32;6.15;;;;;;;4.00;61.53;100480.97;4953597;29;20097;-39
2024/02/03 05:44:30;;;;;;;16.45;6.78;;;;;;;3.90;62.40;100470.47;4953688;29;20039;-39
2024/02/03 05:46:56;;;;;;;14.65;6.93;;;;;;;3.95;62.75;100470.06;4953659;29;20110;-40
2024/02/03 05:49:21;;;;;;;15.18;6.78;;;;;;;4.16;61.86;100461.94;4953806;29;20030;-40
2024/02/03 05:51:47;;;;;;;13.73;7.22;;;;;;;4.35;61.14;100466.31;4953707;29;20030;-38
2024/02/03 05:54:12;;;;;;;15.75;7.60;;;;;;;4.42;61.00;100470.84;4953180;29;20031;-37
2024/02/03 05:56:37;;;;;;;16.75;7.10;;;;;;;4.41;60.84;100473.63;4952980;29;20042;-39
2024/02/03 05:59:03;;;;;;;18.10;7.28;;;;;;;4.64;60.60;100480.16;4953057;29;20424;-40
2024/02/03 06:01:29;;;;;;;17.60;7.50;;;;;;;4.72;60.06;100475.97;4953451;29;20091;-40
2024/02/03 06:03:54;;;;;;;12.50;6.95;;;;;;;5.10;59.22;100477.53;4952788;29;20130;-40
2024/02/03 06:06:21;;;;;;;10.23;6.45;;;;;;;5.25;58.21;100477.84;4951950;29;20038;-37
2024/02/03 06:08:47;;;;;;;15.52;6.82;;;;;;;5.45;65.86;100483.81;4952594;29;20035;-39
2024/02/03 06:11:13;;;;;;;10.90;6.53;;;;;;;6.54;64.32;100480.72;4952321;29;20166;-40
2024/02/03 06:13:38;;;;;;;16.15;7.40;;;;;;;7.58;60.85;100483.91;4952500;29;20027;-39
2024/02/03 06:16:04;;;;;;;12.23;6.57;;;;;;;8.39;56.21;100482.91;4952591;29;20042;-40
2024/02/03 06:18:29;;;;;;;11.35;6.82;;;;;;;8.41;54.46;100480.97;4952440;29;20047;-39
2024/02/03 06:20:54;;;;;;;11.00;6.70;;;;;;;9.02;50.67;100461.75;4952386;29;20023;-40
2024/02/03 06:23:20;;;;;;;11.77;6.25;;;;;;;9.37;51.50;100472.81;4952416;29;20038;-39
2024/02/03 06:25:45;;;;;;;15.18;6.40;;;;;;;8.66;48.11;100483.50;4952484;29;20031;-39
2024/02/03 06:28:11;;;;;;;9.02;5.88;;;;;;;7.75;49.92;100480.25;4953738;28;20027;-39
2024/02/03 06:30:37;;;;;;;11.85;6.30;;;;;;;7.85;49.87;100481.91;4955964;29;20049;-40
2024/02/03 06:33:04;;;;;;;11.93;6.93;;;;;;;7.89;49.87;100486.69;4955457;29;20190;-27
2024/02/03 06:35:30;;;;;;;11.50;6.32;;;;;;;8.27;49.19;100499.38;4956161;29;20039;-40
2024/02/03 06:37:55;;;;;;;10.63;6.07;;;;;;;8.84;47.58;100496.53;4955733;29;20035;-37
2024/02/03 06:40:22;;;;;;;9.75;6.00;;;;;;;8.38;47.65;100491.06;4955802;29;20380;-37
2024/02/03 06:42:53;;;;;;;12.27;6.80;;;;;;;8.53;48.08;100500.00;4955745;29;20555;-41
2024/02/03 06:45:19;;;;;;;11.60;7.03;;;;;;;8.46;47.95;100495.56;4955696;29;20500;-40
2024/02/03 06:47:45;;;;;;;12.07;6.78;;;;;;;8.61;47.58;100499.13;4955998;29;20039;-40
2024/02/03 06:50:12;;;;;;;12.18;6.82;;;;;;;8.49;48.26;100503.16;4955586;29;20102;-37
2024/02/03 06:52:38;;;;;;;14.80;6.80;;;;;;;8.86;47.66;100497.19;4955464;29;20023;-41
2024/02/03 06:55:03;;;;;;;10.57;6.72;;;;;;;8.87;47.46;100506.81;4955588;29;20484;-40
2024/02/03 06:57:29;;;;;;;11.35;7.38;;;;;;;8.73;48.25;100491.63;4954652;29;20031;-38
2024/02/03 06:59:54;;;;;;;12.65;6.68;;;;;;;9.32;46.80;100493.75;4955071;29;20031;-39
2024/02/03 07:02:20;;;;;;;9.52;6.68;;;;;;;9.32;46.05;100491.09;4955174;29;20027;-37
2024/02/03 07:04:45;;;;;;;11.50;6.55;;;;;;;9.17;46.47;100485.72;4955334;29;20082;-39
2024/02/03 07:07:11;;;;;;;10.18;6.38;;;;;;;9.37;46.25;100491.41;4954820;29;20407;-39
2024/02/03 07:09:36;;;;;;;8.48;5.57;;;;;;;9.84;44.44;100484.19;4937619;29;20471;-40
2024/02/03 07:12:01;;;;;;;10.77;5.78;;;;;;;10.18;43.64;100492.53;4954130;29;20043;-39
2024/02/03 07:14:27;;;;;;;9.57;6.25;;;;;;;9.94;43.86;100490.09;4954741;29;20023;-40
2024/02/03 07:16:52;;;;;;;10.90;6.30;;;;;;;9.59;43.57;100487.06;4954417;29;20086;-38
2024/02/03 07:19:19;;;;;;;13.02;5.80;;;;;;;9.76;43.63;100490.41;4954788;29;20031;-39
2024/02/03 07:21:44;;;;;;;9.07;5.97;;;;;;;9.92;42.56;100489.47;4954856;29;20027;-40
2024/02/03 07:24:09;;;;;;;11.75;5.57;;;;;;;9.86;42.86;100479.53;4954935;29;20027;-37
2024/02/03 07:26:35;;;;;;;8.73;4.85;;;;;;;9.49;42.89;100481.19;4954133;29;20035;-39
2024/02/03 07:29:00;;;;;;;8.40;5.15;;;;;;;9.96;42.70;100478.28;4954428;29;20029;-40
2024/02/03 07:31:29;;;;;;;10.30;5.40;;;;;;;10.04;42.15;100472.03;4954731;29;20100;-39
2024/02/03 07:33:56;;;;;;;8.40;5.20;;;;;;;10.32;42.25;100468.78;4954291;29;20142;-39
2024/02/03 07:36:22;;;;;;;8.90;5.10;;;;;;;9.90;42.84;100464.84;4954412;29;20050;-39
2024/02/03 07:38:48;;;;;;;9.13;5.43;;;;;;;10.24;42.48;100464.34;4954743;29;20027;-41
2024/02/03 07:41:14;;;;;;;10.57;5.40;;;;;;;11.03;40.27;100458.38;4953985;28;20081;-41
2024/02/03 07:43:40;;;;;;;9.20;5.63;;;;;;;11.04;41.09;100467.19;4954639;29;20031;-40
2024/02/03 07:46:05;;;;;;;7.82;5.13;;;;;;;11.00;41.13;100460.59;4937114;29;20023;-41
2024/02/03 07:48:31;;;;;;;8.35;5.07;;;;;;;11.10;40.01;100458.44;4954205;29;20568;-41
2024/02/03 07:50:56;;;;;;;8.73;5.40;;;;;;;10.71;40.69;100457.00;4953650;29;20027;-40
2024/02/03 07:53:21;;;;;;;9.95;5.15;;;;;;;10.72;40.86;100453.34;4953543;29;20547;-40
2024/02/03 07:55:47;;;;;;;9.68;4.95;;;;;;;10.83;41.63;100458.13;4954230;29;20023;-39
2024/02/03 07:58:12;;;;;;;8.85;4.78;;;;;;;10.95;40.29;100453.16;4937011;29;20126;-40
2024/02/03 08:00:38;;;;;;;7.70;4.90;;;;;;;10.80;40.91;100461.19;4954228;29;20090;-42
2024/02/03 08:03:04;;;;;;;8.80;4.38;;;;;;;10.80;40.16;100444.41;4953773;29;20031;-41
2024/02/03 08:05:29;;;;;;;11.23;5.10;;;;;;;10.86;40.41;100456.97;4954201;29;20482;-29
2024/02/03 08:07:54;;;;;;;10.90;6.75;;;;;;;11.59;38.57;100457.66;4954464;29;20065;-27
2024/02/03 08:10:20;;;;;;;8.68;4.88;;;;;;;12.31;37.58;100461.88;4954461;29;20028;-27
2024/02/03 08:12:46;;;;;;;8.57;4.55;;;;;;;13.01;36.40;100458.25;4954233;29;20027;-28
2024/02/03 08:15:11;;;;;;;7.93;4.68;;;;;;;11.96;37.59;100463.72;4953435;29;20075;-28
2024/02/03 08:17:37;;;;;;;7.22;4.75;;;;;;;12.87;37.37;100470.72;4953820;29;20035;-28
2024/02/03 08:20:05;;;;;;;7.80;5.03;;;;;;;13.28;35.96;100453.75;4953683;29;20034;-28
2024/02/03 08:22:31;;;;;;;7.95;4.72;;;;;;;13.10;35.88;100455.19;4953853;29;20093;-28
2024/02/03 08:24:56;;;;;;;9.70;5.00;;;;;;;12.68;36.61;100465.13;4953813;29;20027;-28
2024/02/03 08:27:21;;;;;;;6.93;4.03;;;;;;;12.69;36.03;100463.28;4953519;29;20490;-27
2024/02/03 08:29:47;;;;;;;5.65;3.90;;;;;;;12.89;35.60;100458.00;4953596;29;20034;-28
2024/02/03 08:32:12;;;;;;;7.53;4.22;;;;;;;12.80;35.45;100445.84;4953444;29;20492;-30
2024/02/03 08:34:40;;;;;;;6.80;4.00;;;;;;;12.93;35.48;100461.06;4953057;29;20054;-30
2024/02/03 08:37:05;;;;;;;6.20;3.67;;;;;;;12.84;35.34;100450.59;4952243;29;20054;-28
2024/02/03 08:39:31;;;;;;;5.03;3.70;;;;;;;13.34;34.38;100447.63;4953579;29;20476;-27
2024/02/03 08:41:56;;;;;;;6.88;3.28;;;;;;;13.61;34.27;100437.78;4953423;29;20476;-27
2024/02/03 08:44:22;;;;;;;5.70;3.65;;;;;;;12.90;34.41;100432.94;4953563;29;20510;-28
2024/02/03 08:46:47;;;;;;;12.02;3.78;;;;;;;13.43;34.70;100448.25;4953589;29;20050;-28
2024/02/03 08:49:12;;;;;;;4.97;3.30;;;;;;;13.07;34.13;100447.56;4953372;29;20027;-28
2024/02/03 08:51:38;;;;;;;5.82;3.55;;;;;;;13.61;33.95;100428.91;4952133;28;20023;-28
2024/02/03 08:54:03;;;;;;;8.35;4.15;;;;;;;13.94;33.50;100428.88;4953897;29;20027;-28
2024/02/03 08:56:29;;;;;;;6.18;3.40;;;;;;;14.20;32.21;100429.84;4953506;29;20023;-28
2024/02/03 08:58:54;;;;;;;6.70;3.40;;;;;;;12.98;33.80;100424.72;4953979;29;20110;-28
2024/02/03 09:01:19;;;;;;;5.72;2.92;;;;;;;13.01;33.25;100421.66;4953878;29;20110;-27
2024/02/03 09:03:45;;;;;;;10.23;3.10;;;;;;;12.48;34.49;100424.97;4953428;29;20322;-27
2024/02/03 09:06:13;;;;;;;5.65;2.90;;;;;;;12.57;34.44;100428.31;4953525;29;20023;-28
2024/02/03 09:08:39;;;;;;;6.60;3.60;;;;;;;13.11;34.14;100413.25;4954307;29;20082;-27
2024/02/03 09:11:04;;;;;;;7.13;3.38;;;;;;;13.49;32.95;100418.84;4953680;29;20030;-28
2024/02/03 09:13:30;;;;;;;8.25;3.78;;;;;;;12.99;34.09;100414.88;4953168;29;20027;-28
2024/02/03 09:15:55;;;;;;;6.40;4.43;;;;;;;13.30;34.57;100419.66;4953769;29;20066;-28
2024/02/03 09:18:20;;;;;;;8.40;4.00;;;;;;;13.54;33.80;100412.88;4953606;29;20444;-27
2024/02/03 09:20:47;;;;;;;6.88;4.20;;;;;;;14.28;32.81;100416.25;4953630;29;20030;-27
2024/02/03 09:23:12;;;;;;;6.57;3.50;;;;;;;13.63;33.16;100414.31;4953574;29;20024;-28
2024/02/03 09:25:39;;;;;;;7.95;3.63;;;;;;;12.41;34.61;100415.31;4953660;29;20062;-29
2024/02/03 09:28:06;;;;;;;11.05;3.53;;;;;;;12.04;35.26;100422.72;4952951;29;20428;-28
2024/02/03 09:30:31;;;;;;;6.95;3.50;;;;;;;12.51;35.25;100411.25;4952872;29;20026;-31
2024/02/03 09:32:56;;;;;;;9.10;3.60;;;;;;;12.57;34.62;100406.97;4952451;29;20130;-29
2024/02/03 09:35:22;;;;;;;5.28;3.42;;;;;;;12.34;34.89;100412.63;4952755;29;20130;-27
2024/02/03 09:37:47;;;;;;;6.13;3.25;;;;;;;12.73;34.16;100399.59;4952477;29;20546;-27
2024/02/03 09:40:20;;;;;;;7.30;3.17;;;;;;;13.18;33.76;100382.00;4952667;29;20495;-28
2024/02/03 09:42:47;;;;;;;6.47;3.35;;;;;;;14.07;32.68;100383.38;4952279;29;20023;-27
2024/02/03 09:45:13;;;;;;;6.97;3.67;;;;;;;13.05;33.44;100385.47;4952930;29;20034;-29
2024/02/03 09:47:38;;;;;;;4.82;2.92;;;;;;;13.45;33.43;100379.34;4952633;29;20024;-27
2024/02/03 09:50:05;;;;;;;7.22;3.30;;;;;;;13.56;33.01;100375.25;4952583;29;20038;-28
2024/02/03 09:52:33;;;;;;;5.72;3.10;;;;;;;13.44;33.48;100375.03;4952658;29;20023;-29
2024/02/03 09:54:59;;;;;;;4.95;3.10;;;;;;;13.56;33.22;100360.03;4952742;29;20050;-30
2024/02/03 09:57:25;;;;;;;5.57;3.20;;;;;;;13.42;33.46;100367.25;4952211;29;20407;-27
2024/02/03 09:59:51;;;;;;;6.70;3.10;;;;;;;13.17;33.50;100358.16;4952495;29;20054;-27
2024/02/03 10:02:16;;;;;;;6.47;3.10;;;;;;;12.54;34.58;100353.94;4952603;28;20068;-28
2024/02/03 10:04:44;;;;;;;7.20;2.97;;;;;;;12.51;34.84;100338.34;4956321;29;20038;-28
2024/02/03 10:07:11;;;;;;;9.75;3.25;;;;;;;13.51;33.66;100337.59;4956193;29;20106;-28
2024/02/03 10:09:36;;;;;;;4.63;2.88;;;;;;;13.14;34.09;100343.38;4955827;29;20028;-28
2024/02/03 10:12:02;;;;;;;6.18;3.10;;;;;;;12.71;34.56;100344.53;4956107;29;20023;-27
2024/02/03 10:14:28;;;;;;;5.03;3.13;;;;;;;13.78;33.66;100335.69;4955861;29;20038;-27
2024/02/03 10:16:53;;;;;;;6.00;3.15;;;;;;;13.99;33.17;100330.09;4955799;29;20205;-28
2024/02/03 10:19:22;;;;;;;4.68;2.97;;;;;;;13.53;33.31;100332.88;4955798;29;20035;-28
2024/02/03 10:21:49;;;;;;;6.80;3.03;;;;;;;13.49;33.48;100327.94;4955985;29;20439;-28
2024/02/03 10:24:26;;;;;;;4.30;2.78;;;;;;;13.64;33.22;100325.03;4956140;29;20435;-27
2024/02/03 10:27:04;;;;;;;5.65;2.78;;;;;;;13.78;33.69;100327.66;4955966;29;20170;-28
2024/02/03 10:29:30;;;;;;;4.85;2.60;;;;;;;13.24;33.89;100314.38;4955847;29;20035;-28
2024/02/03 10:31:55;;;;;;;5.53;2.60;;;;;;;13.01;34.72;100316.66;4956183;29;20034;-28
2024/02/03 10:34:22;;;;;;;4.85;2.85;;;;;;;13.37;33.81;100318.09;4955594;29;20198;-27
2024/02/03 10:36:48;;;;;;;4.70;2.60;;;;;;;13.20;33.91;100307.78;4955843;29;20030;-27
2024/02/03 10:39:14;;;;;;;5.70;3.30;;;;;;;13.25;33.79;100309.84;4955502;29;20023;-41
2024/02/03 10:41:41;;;;;;;4.88;2.90;;;;;;;13.59;33.38;100305.28;4955896;29;20138;-40
2024/02/03 10:44:10;;;;;;;8.70;3.00;;;;;;;13.76;33.62;100298.44;4955973;29;20102;-39
2024/02/03 10:46:37;;;;;;;6.53;3.00;;;;;;;13.16;33.82;100295.88;4955395;29;20054;-41
2024/02/03 10:49:09;;;;;;;5.50;3.42;;;;;;;12.73;34.68;100288.25;4955023;29;20110;-41
2024/02/03 10:51:35;;;;;;;7.60;3.15;;;;;;;12.96;34.04;100284.38;4955432;29;20015;-40
2024/02/03 10:54:12;;;;;;;6.25;3.10;;;;;;;13.25;34.04;100285.78;4936457;29;20492;-39
2024/02/03 10:56:40;;;;;;;5.72;3.22;;;;;;;12.97;34.41;100283.34;4954146;29;20027;-40
2024/02/03 10:59:05;;;;;;;5.65;3.40;;;;;;;12.91;34.33;100285.00;4955109;29;20123;-40
2024/02/03 11:01:36;;;;;;;5.95;3.58;;;;;;;12.84;34.38;100273.50;4955126;29;20027;-41
2024/02/03 11:04:02;;;;;;;7.53;3.90;;;;;;;13.01;34.11;100268.56;4955104;29;20443;-38
2024/02/03 11:06:29;;;;;;;12.98;4.28;;;;;;;12.61;35.14;100265.88;4955283;29;20027;-42
2024/02/03 11:09:13;;;;;;;9.65;4.63;;;;;;;12.21;35.63;100263.13;4955190;29;20055;-38
2024/02/03 11:11:47;;;;;;;8.77;3.70;;;;;;;12.42;35.99;100260.31;4955490;29;20129;-38
2024/02/03 11:14:19;;;;;;;8.95;3.45;;;;;;;12.55;35.21;100256.84;4954379;28;20097;-39
2024/02/03 11:16:53;;;;;;;9.90;3.50;;;;;;;12.44;35.64;100247.56;4955074;29;20054;-39
2024/02/03 11:19:24;;;;;;;7.25;3.80;;;;;;;12.97;34.81;100252.13;4955616;29;20027;-40